sensor_id;sensor_type;location;lat;lon;timestamp;temperature;humidity
4908;DHT22;64375;51.540;7.364;2023-05-02T00:00:44;18.40;92.30
4908;DHT22;64375;51.540;7.364;2023-05-02T00:03:12;18.30;92.60
4908;DHT22;64375;51.540;7.364;2023-05-02T00:05:46;18.30;92.70
4908;DHT22;64375;51.540;7.364;2023-05-02T00:08:13;18.30;92.70
4908;DHT22;64375;51.540;7.364;2023-05-02T00:10:49;18.30;92.60
4908;DHT22;64375;51.540;7.364;2023-05-02T00:13:20;18.30;92.80
4908;DHT22;64375;51.540;7.364;2023-05-02T00:15:52;18.30;92.80
4908;DHT22;64375;51.540;7.364;2023-05-02T00:18:23;18.20;92.80
4908;DHT22;64375;51.540;7.364;2023-05-02T00:20:58;18.30;92.90
4908;DHT22;64375;51.540;7.364;2023-05-02T00:23:31;18.20;92.80
4908;DHT22;64375;51.540;7.364;2023-05-02T00:26:01;18.20;92.80
4908;DHT22;64375;51.540;7.364;2023-05-02T00:28:32;18.20;92.70
4908;DHT22;64375;51.540;7.364;2023-05-02T00:31:04;18.20;92.90
4908;DHT22;64375;51.540;7.364;2023-05-02T00:33:32;18.20;92.70
4908;DHT22;64375;51.540;7.364;2023-05-02T00:36:15;18.10;92.60
4908;DHT22;64375;51.540;7.364;2023-05-02T00:38:44;18.00;92.30
4908;DHT22;64375;51.540;7.364;2023-05-02T00:41:16;18.10;92.80
4908;DHT22;64375;51.540;7.364;2023-05-02T00:43:49;18.10;92.90
4908;DHT22;64375;51.540;7.364;2023-05-02T00:46:19;18.00;92.40
4908;DHT22;64375;51.540;7.364;2023-05-02T00:48:50;17.90;92.30
4908;DHT22;64375;51.540;7.364;2023-05-02T00:51:18;17.80;92.40
4908;DHT22;64375;51.540;7.364;2023-05-02T00:53:46;17.90;93.00
4908;DHT22;64375;51.540;7.364;2023-05-02T00:56:14;17.70;91.90
4908;DHT22;64375;51.540;7.364;2023-05-02T00:58:45;17.60;92.40
4908;DHT22;64375;51.540;7.364;2023-05-02T01:01:28;17.50;92.60
4908;DHT22;64375;51.540;7.364;2023-05-02T01:04:19;17.50;93.00
4908;DHT22;64375;51.540;7.364;2023-05-02T01:07:10;17.50;93.40
4908;DHT22;64375;51.540;7.364;2023-05-02T01:09:51;17.60;93.40
4908;DHT22;64375;51.540;7.364;2023-05-02T01:12:40;17.60;93.30
4908;DHT22;64375;51.540;7.364;2023-05-02T01:15:12;17.70;93.50
4908;DHT22;64375;51.540;7.364;2023-05-02T01:17:50;17.70;93.40
4908;DHT22;64375;51.540;7.364;2023-05-02T01:20:20;17.80;93.30
4908;DHT22;64375;51.540;7.364;2023-05-02T01:22:50;17.70;93.10
4908;DHT22;64375;51.540;7.364;2023-05-02T01:25:26;17.80;93.30
4908;DHT22;64375;51.540;7.364;2023-05-02T01:28:09;17.80;93.20
4908;DHT22;64375;51.540;7.364;2023-05-02T01:30:45;17.90;93.20
4908;DHT22;64375;51.540;7.364;2023-05-02T01:33:16;17.90;93.10
4908;DHT22;64375;51.540;7.364;2023-05-02T01:35:46;17.90;93.10
4908;DHT22;64375;51.540;7.364;2023-05-02T01:38:19;17.90;93.20
4908;DHT22;64375;51.540;7.364;2023-05-02T01:40:50;17.90;92.90
4908;DHT22;64375;51.540;7.364;2023-05-02T01:43:27;17.90;92.40
4908;DHT22;64375;51.540;7.364;2023-05-02T01:46:01;17.70;92.80
4908;DHT22;64375;51.540;7.364;2023-05-02T01:48:30;17.70;92.70
4908;DHT22;64375;51.540;7.364;2023-05-02T01:50:59;17.70;92.20
4908;DHT22;64375;51.540;7.364;2023-05-02T01:53:33;17.60;92.20
4908;DHT22;64375;51.540;7.364;2023-05-02T01:56:02;17.50;93.00
4908;DHT22;64375;51.540;7.364;2023-05-02T01:58:32;17.40;92.40
4908;DHT22;64375;51.540;7.364;2023-05-02T02:01:07;17.20;92.80
4908;DHT22;64375;51.540;7.364;2023-05-02T02:03:45;17.00;92.40
4908;DHT22;64375;51.540;7.364;2023-05-02T02:06:16;16.90;92.80
4908;DHT22;64375;51.540;7.364;2023-05-02T02:08:57;17.00;93.70
4908;DHT22;64375;51.540;7.364;2023-05-02T02:11:34;17.20;93.80
4908;DHT22;64375;51.540;7.364;2023-05-02T02:14:06;17.20;93.40
4908;DHT22;64375;51.540;7.364;2023-05-02T02:17:11;17.30;92.90
4908;DHT22;64375;51.540;7.364;2023-05-02T02:19:40;17.40;93.10
4908;DHT22;64375;51.540;7.364;2023-05-02T02:22:13;17.40;93.00
4908;DHT22;64375;51.540;7.364;2023-05-02T02:24:43;17.40;93.40
4908;DHT22;64375;51.540;7.364;2023-05-02T02:27:18;17.40;93.00
4908;DHT22;64375;51.540;7.364;2023-05-02T02:29:46;17.30;93.40
4908;DHT22;64375;51.540;7.364;2023-05-02T02:32:16;17.40;93.50
4908;DHT22;64375;51.540;7.364;2023-05-02T02:34:53;17.40;93.30
4908;DHT22;64375;51.540;7.364;2023-05-02T02:37:27;17.30;93.20
4908;DHT22;64375;51.540;7.364;2023-05-02T02:40:18;17.40;93.80
4908;DHT22;64375;51.540;7.364;2023-05-02T02:43:09;17.30;93.40
4908;DHT22;64375;51.540;7.364;2023-05-02T02:45:50;17.40;93.20
4908;DHT22;64375;51.540;7.364;2023-05-02T02:48:28;17.30;93.40
4908;DHT22;64375;51.540;7.364;2023-05-02T02:51:39;17.30;93.10
4908;DHT22;64375;51.540;7.364;2023-05-02T02:54:17;17.40;93.50
4908;DHT22;64375;51.540;7.364;2023-05-02T02:57:05;17.50;93.50
4908;DHT22;64375;51.540;7.364;2023-05-02T02:59:37;17.60;93.20
4908;DHT22;64375;51.540;7.364;2023-05-02T03:02:12;17.60;93.50
4908;DHT22;64375;51.540;7.364;2023-05-02T03:04:50;17.50;92.70
4908;DHT22;64375;51.540;7.364;2023-05-02T03:07:20;17.40;93.10
4908;DHT22;64375;51.540;7.364;2023-05-02T03:09:51;17.30;93.30
4908;DHT22;64375;51.540;7.364;2023-05-02T03:12:29;17.30;93.50
4908;DHT22;64375;51.540;7.364;2023-05-02T03:15:13;17.20;93.50
4908;DHT22;64375;51.540;7.364;2023-05-02T03:17:41;17.30;93.50
4908;DHT22;64375;51.540;7.364;2023-05-02T03:20:11;17.30;93.60
4908;DHT22;64375;51.540;7.364;2023-05-02T03:22:50;17.30;93.30
4908;DHT22;64375;51.540;7.364;2023-05-02T03:25:27;17.30;93.60
4908;DHT22;64375;51.540;7.364;2023-05-02T03:28:00;17.30;93.20
4908;DHT22;64375;51.540;7.364;2023-05-02T03:30:40;17.30;93.30
4908;DHT22;64375;51.540;7.364;2023-05-02T03:33:11;17.30;93.50
4908;DHT22;64375;51.540;7.364;2023-05-02T03:35:44;17.30;93.10
4908;DHT22;64375;51.540;7.364;2023-05-02T03:38:12;17.30;93.40
4908;DHT22;64375;51.540;7.364;2023-05-02T03:40:39;17.40;93.50
4908;DHT22;64375;51.540;7.364;2023-05-02T03:43:13;17.40;93.30
4908;DHT22;64375;51.540;7.364;2023-05-02T03:45:47;17.40;93.30
4908;DHT22;64375;51.540;7.364;2023-05-02T03:48:18;17.40;93.10
4908;DHT22;64375;51.540;7.364;2023-05-02T03:51:05;17.40;93.50
4908;DHT22;64375;51.540;7.364;2023-05-02T03:53:38;17.30;93.10
4908;DHT22;64375;51.540;7.364;2023-05-02T03:56:09;17.40;93.30
4908;DHT22;64375;51.540;7.364;2023-05-02T03:58:40;17.40;93.40
4908;DHT22;64375;51.540;7.364;2023-05-02T04:01:15;17.40;93.20
4908;DHT22;64375;51.540;7.364;2023-05-02T04:03:43;17.30;93.00
4908;DHT22;64375;51.540;7.364;2023-05-02T04:06:13;17.30;93.10
4908;DHT22;64375;51.540;7.364;2023-05-02T04:08:41;17.30;93.20
4908;DHT22;64375;51.540;7.364;2023-05-02T04:11:09;17.20;93.20
4908;DHT22;64375;51.540;7.364;2023-05-02T04:13:42;17.30;93.40
4908;DHT22;64375;51.540;7.364;2023-05-02T04:16:10;17.30;93.40
4908;DHT22;64375;51.540;7.364;2023-05-02T04:18:38;17.30;93.30
4908;DHT22;64375;51.540;7.364;2023-05-02T04:21:19;17.30;93.40
4908;DHT22;64375;51.540;7.364;2023-05-02T04:23:47;17.30;93.40
4908;DHT22;64375;51.540;7.364;2023-05-02T04:26:18;17.40;93.30
4908;DHT22;64375;51.540;7.364;2023-05-02T04:28:47;17.40;93.30
4908;DHT22;64375;51.540;7.364;2023-05-02T04:31:15;17.40;93.50
4908;DHT22;64375;51.540;7.364;2023-05-02T04:33:43;17.40;93.50
4908;DHT22;64375;51.540;7.364;2023-05-02T04:36:11;17.50;93.60
4908;DHT22;64375;51.540;7.364;2023-05-02T04:38:43;17.40;93.00
4908;DHT22;64375;51.540;7.364;2023-05-02T04:41:11;17.40;93.70
4908;DHT22;64375;51.540;7.364;2023-05-02T04:43:43;17.40;93.20
4908;DHT22;64375;51.540;7.364;2023-05-02T04:46:33;17.40;93.60
4908;DHT22;64375;51.540;7.364;2023-05-02T04:49:01;17.30;93.80
4908;DHT22;64375;51.540;7.364;2023-05-02T04:51:28;17.20;93.30
4908;DHT22;64375;51.540;7.364;2023-05-02T04:54:09;17.20;93.80
4908;DHT22;64375;51.540;7.364;2023-05-02T04:56:37;17.20;94.00
4908;DHT22;64375;51.540;7.364;2023-05-02T04:59:07;17.20;94.20
4908;DHT22;64375;51.540;7.364;2023-05-02T05:01:38;17.20;94.30
4908;DHT22;64375;51.540;7.364;2023-05-02T05:04:05;17.10;93.70
4908;DHT22;64375;51.540;7.364;2023-05-02T05:06:36;17.00;93.70
4908;DHT22;64375;51.540;7.364;2023-05-02T05:09:12;16.90;94.00
4908;DHT22;64375;51.540;7.364;2023-05-02T05:11:42;16.90;94.00
4908;DHT22;64375;51.540;7.364;2023-05-02T05:14:12;16.80;94.20
4908;DHT22;64375;51.540;7.364;2023-05-02T05:16:42;16.90;94.40
4908;DHT22;64375;51.540;7.364;2023-05-02T05:19:13;17.00;93.80
4908;DHT22;64375;51.540;7.364;2023-05-02T05:21:43;16.90;93.70
4908;DHT22;64375;51.540;7.364;2023-05-02T05:24:13;17.00;94.30
4908;DHT22;64375;51.540;7.364;2023-05-02T05:26:47;17.10;94.50
4908;DHT22;64375;51.540;7.364;2023-05-02T05:29:17;17.10;94.10
4908;DHT22;64375;51.540;7.364;2023-05-02T05:31:45;17.40;93.90
4908;DHT22;64375;51.540;7.364;2023-05-02T05:34:16;17.60;93.80
4908;DHT22;64375;51.540;7.364;2023-05-02T05:36:44;17.70;92.60
4908;DHT22;64375;51.540;7.364;2023-05-02T05:39:14;17.70;93.20
4908;DHT22;64375;51.540;7.364;2023-05-02T05:41:42;17.50;93.40
4908;DHT22;64375;51.540;7.364;2023-05-02T05:44:13;17.50;93.60
4908;DHT22;64375;51.540;7.364;2023-05-02T05:46:48;17.40;92.70
4908;DHT22;64375;51.540;7.364;2023-05-02T05:49:16;17.10;93.20
4908;DHT22;64375;51.540;7.364;2023-05-02T05:51:44;17.10;93.00
4908;DHT22;64375;51.540;7.364;2023-05-02T05:54:17;17.00;93.50
4908;DHT22;64375;51.540;7.364;2023-05-02T05:56:48;17.00;93.40
4908;DHT22;64375;51.540;7.364;2023-05-02T05:59:16;17.00;93.80
4908;DHT22;64375;51.540;7.364;2023-05-02T06:01:46;17.10;93.70
4908;DHT22;64375;51.540;7.364;2023-05-02T06:04:14;17.20;94.10
4908;DHT22;64375;51.540;7.364;2023-05-02T06:06:42;17.30;93.60
4908;DHT22;64375;51.540;7.364;2023-05-02T06:09:13;17.30;93.20
4908;DHT22;64375;51.540;7.364;2023-05-02T06:11:54;17.10;92.20
4908;DHT22;64375;51.540;7.364;2023-05-02T06:14:21;16.80;92.70
4908;DHT22;64375;51.540;7.364;2023-05-02T06:16:49;16.40;92.30
4908;DHT22;64375;51.540;7.364;2023-05-02T06:19:20;16.50;93.40
4908;DHT22;64375;51.540;7.364;2023-05-02T06:21:48;16.50;93.90
4908;DHT22;64375;51.540;7.364;2023-05-02T06:24:25;16.50;93.50
4908;DHT22;64375;51.540;7.364;2023-05-02T06:26:57;16.50;92.90
4908;DHT22;64375;51.540;7.364;2023-05-02T06:29:25;16.50;93.10
4908;DHT22;64375;51.540;7.364;2023-05-02T06:31:56;16.50;93.50
4908;DHT22;64375;51.540;7.364;2023-05-02T06:34:24;16.60;94.30
4908;DHT22;64375;51.540;7.364;2023-05-02T06:37:00;16.70;94.50
4908;DHT22;64375;51.540;7.364;2023-05-02T06:39:28;16.70;93.20
4908;DHT22;64375;51.540;7.364;2023-05-02T06:41:58;16.60;93.30
4908;DHT22;64375;51.540;7.364;2023-05-02T06:44:26;16.60;93.10
4908;DHT22;64375;51.540;7.364;2023-05-02T06:47:05;16.70;94.20
4908;DHT22;64375;51.540;7.364;2023-05-02T06:49:34;16.70;93.30
4908;DHT22;64375;51.540;7.364;2023-05-02T06:52:02;16.90;93.40
4908;DHT22;64375;51.540;7.364;2023-05-02T06:54:30;16.90;94.10
4908;DHT22;64375;51.540;7.364;2023-05-02T06:56:59;16.70;93.60
4908;DHT22;64375;51.540;7.364;2023-05-02T06:59:28;16.70;93.60
4908;DHT22;64375;51.540;7.364;2023-05-02T07:02:02;16.50;92.90
4908;DHT22;64375;51.540;7.364;2023-05-02T07:04:31;16.10;93.20
4908;DHT22;64375;51.540;7.364;2023-05-02T07:07:09;15.70;93.10
4908;DHT22;64375;51.540;7.364;2023-05-02T07:09:46;15.70;94.30
4908;DHT22;64375;51.540;7.364;2023-05-02T07:12:15;15.70;94.30
4908;DHT22;64375;51.540;7.364;2023-05-02T07:14:43;15.80;94.90
4908;DHT22;64375;51.540;7.364;2023-05-02T07:17:12;15.70;93.40
4908;DHT22;64375;51.540;7.364;2023-05-02T07:19:41;15.80;93.90
4908;DHT22;64375;51.540;7.364;2023-05-02T07:22:14;15.80;93.20
4908;DHT22;64375;51.540;7.364;2023-05-02T07:24:42;15.60;93.10
4908;DHT22;64375;51.540;7.364;2023-05-02T07:27:11;15.60;93.60
4908;DHT22;64375;51.540;7.364;2023-05-02T07:29:43;15.30;92.90
4908;DHT22;64375;51.540;7.364;2023-05-02T07:32:10;15.20;93.50
4908;DHT22;64375;51.540;7.364;2023-05-02T07:34:41;15.30;95.40
4908;DHT22;64375;51.540;7.364;2023-05-02T07:37:15;15.30;95.30
4908;DHT22;64375;51.540;7.364;2023-05-02T07:39:46;14.90;93.70
4908;DHT22;64375;51.540;7.364;2023-05-02T07:42:14;14.80;93.90
4908;DHT22;64375;51.540;7.364;2023-05-02T07:44:44;14.20;94.60
4908;DHT22;64375;51.540;7.364;2023-05-02T07:47:15;13.70;95.40
4908;DHT22;64375;51.540;7.364;2023-05-02T07:49:52;13.40;96.10
4908;DHT22;64375;51.540;7.364;2023-05-02T07:52:21;13.20;95.90
4908;DHT22;64375;51.540;7.364;2023-05-02T07:54:50;12.70;96.80
4908;DHT22;64375;51.540;7.364;2023-05-02T07:57:21;12.30;97.30
4908;DHT22;64375;51.540;7.364;2023-05-02T07:59:51;12.00;98.50
4908;DHT22;64375;51.540;7.364;2023-05-02T08:02:19;11.80;99.00
4908;DHT22;64375;51.540;7.364;2023-05-02T08:04:52;11.80;99.90
4908;DHT22;64375;51.540;7.364;2023-05-02T08:07:20;11.80;99.70
4908;DHT22;64375;51.540;7.364;2023-05-02T08:09:57;11.90;99.80
4908;DHT22;64375;51.540;7.364;2023-05-02T08:12:25;12.20;99.90
4908;DHT22;64375;51.540;7.364;2023-05-02T08:14:54;12.10;99.90
4908;DHT22;64375;51.540;7.364;2023-05-02T08:17:22;12.30;99.40
4908;DHT22;64375;51.540;7.364;2023-05-02T08:19:50;12.30;98.90
4908;DHT22;64375;51.540;7.364;2023-05-02T08:22:25;12.40;99.30
4908;DHT22;64375;51.540;7.364;2023-05-02T08:24:56;12.20;98.90
4908;DHT22;64375;51.540;7.364;2023-05-02T08:27:24;11.90;99.10
4908;DHT22;64375;51.540;7.364;2023-05-02T08:29:52;11.60;99.90
4908;DHT22;64375;51.540;7.364;2023-05-02T08:32:26;11.40;99.90
4908;DHT22;64375;51.540;7.364;2023-05-02T08:34:58;11.30;99.90
4908;DHT22;64375;51.540;7.364;2023-05-02T08:37:29;11.20;99.90
4908;DHT22;64375;51.540;7.364;2023-05-02T08:40:00;10.90;99.90
4908;DHT22;64375;51.540;7.364;2023-05-02T08:42:31;10.60;99.90
4908;DHT22;64375;51.540;7.364;2023-05-02T08:45:03;10.30;99.90
4908;DHT22;64375;51.540;7.364;2023-05-02T08:47:33;10.20;99.90
4908;DHT22;64375;51.540;7.364;2023-05-02T08:50:02;10.20;99.90
4908;DHT22;64375;51.540;7.364;2023-05-02T08:52:32;10.40;99.90
4908;DHT22;64375;51.540;7.364;2023-05-02T08:55:04;10.30;99.90
4908;DHT22;64375;51.540;7.364;2023-05-02T08:57:32;10.40;99.90
4908;DHT22;64375;51.540;7.364;2023-05-02T09:00:00;10.60;99.90
4908;DHT22;64375;51.540;7.364;2023-05-02T09:02:43;10.80;99.90
4908;DHT22;64375;51.540;7.364;2023-05-02T09:05:18;11.10;99.90
4908;DHT22;64375;51.540;7.364;2023-05-02T09:07:47;11.30;99.90
4908;DHT22;64375;51.540;7.364;2023-05-02T09:10:18;11.20;99.90
4908;DHT22;64375;51.540;7.364;2023-05-02T09:12:48;11.20;99.90
4908;DHT22;64375;51.540;7.364;2023-05-02T09:15:16;11.30;99.90
4908;DHT22;64375;51.540;7.364;2023-05-02T09:17:48;11.30;99.90
4908;DHT22;64375;51.540;7.364;2023-05-02T09:20:16;11.20;99.90
4908;DHT22;64375;51.540;7.364;2023-05-02T09:22:48;11.30;99.90
4908;DHT22;64375;51.540;7.364;2023-05-02T09:25:19;11.50;99.90
4908;DHT22;64375;51.540;7.364;2023-05-02T09:27:54;11.30;99.60
4908;DHT22;64375;51.540;7.364;2023-05-02T09:30:25;11.00;99.50
4908;DHT22;64375;51.540;7.364;2023-05-02T09:33:03;10.70;99.90
4908;DHT22;64375;51.540;7.364;2023-05-02T09:35:32;11.10;99.90
4908;DHT22;64375;51.540;7.364;2023-05-02T09:38:01;11.30;99.90
4908;DHT22;64375;51.540;7.364;2023-05-02T09:40:30;11.30;99.50
4908;DHT22;64375;51.540;7.364;2023-05-02T09:42:58;10.90;99.70
4908;DHT22;64375;51.540;7.364;2023-05-02T09:45:26;10.60;99.90
4908;DHT22;64375;51.540;7.364;2023-05-02T09:47:54;10.60;99.90
4908;DHT22;64375;51.540;7.364;2023-05-02T09:50:36;10.80;99.90
4908;DHT22;64375;51.540;7.364;2023-05-02T09:53:05;10.70;99.90
4908;DHT22;64375;51.540;7.364;2023-05-02T09:55:37;10.80;99.90
4908;DHT22;64375;51.540;7.364;2023-05-02T09:58:05;10.50;99.90
4908;DHT22;64375;51.540;7.364;2023-05-02T10:00:40;10.70;99.90
4908;DHT22;64375;51.540;7.364;2023-05-02T10:03:15;11.00;99.90
4908;DHT22;64375;51.540;7.364;2023-05-02T10:05:47;11.40;99.80
4908;DHT22;64375;51.540;7.364;2023-05-02T10:08:17;11.60;99.90
4908;DHT22;64375;51.540;7.364;2023-05-02T10:10:54;11.60;98.60
4908;DHT22;64375;51.540;7.364;2023-05-02T10:13:22;11.40;98.20
4908;DHT22;64375;51.540;7.364;2023-05-02T10:16:00;11.40;99.00
4908;DHT22;64375;51.540;7.364;2023-05-02T10:18:38;11.60;98.70
4908;DHT22;64375;51.540;7.364;2023-05-02T10:21:16;11.70;98.70
4908;DHT22;64375;51.540;7.364;2023-05-02T10:23:44;11.90;99.10
4908;DHT22;64375;51.540;7.364;2023-05-02T10:26:15;11.90;96.30
4908;DHT22;64375;51.540;7.364;2023-05-02T10:28:49;11.90;98.20
4908;DHT22;64375;51.540;7.364;2023-05-02T10:31:18;12.10;97.30
4908;DHT22;64375;51.540;7.364;2023-05-02T10:33:54;12.20;97.20
4908;DHT22;64375;51.540;7.364;2023-05-02T10:36:30;12.30;96.40
4908;DHT22;64375;51.540;7.364;2023-05-02T10:39:00;12.20;95.70
4908;DHT22;64375;51.540;7.364;2023-05-02T10:41:33;12.20;96.40
4908;DHT22;64375;51.540;7.364;2023-05-02T10:44:08;12.30;97.00
4908;DHT22;64375;51.540;7.364;2023-05-02T10:46:36;12.20;95.00
4908;DHT22;64375;51.540;7.364;2023-05-02T10:49:07;12.10;94.70
4908;DHT22;64375;51.540;7.364;2023-05-02T10:51:38;12.30;96.40
4908;DHT22;64375;51.540;7.364;2023-05-02T10:54:20;12.50;98.40
4908;DHT22;64375;51.540;7.364;2023-05-02T10:57:07;12.70;96.90
4908;DHT22;64375;51.540;7.364;2023-05-02T10:59:38;12.90;95.90
4908;DHT22;64375;51.540;7.364;2023-05-02T11:05:11;13.40;96.80
4908;DHT22;64375;51.540;7.364;2023-05-02T11:07:40;13.20;94.60
4908;DHT22;64375;51.540;7.364;2023-05-02T11:10:30;13.00;93.00
4908;DHT22;64375;51.540;7.364;2023-05-02T11:12:58;12.60;93.30
4908;DHT22;64375;51.540;7.364;2023-05-02T11:15:59;12.30;94.20
4908;DHT22;64375;51.540;7.364;2023-05-02T11:18:56;12.40;94.80
4908;DHT22;64375;51.540;7.364;2023-05-02T11:21:46;12.30;94.40
4908;DHT22;64375;51.540;7.364;2023-05-02T11:24:40;12.60;96.00
4908;DHT22;64375;51.540;7.364;2023-05-02T11:27:40;12.80;98.00
4908;DHT22;64375;51.540;7.364;2023-05-02T11:30:38;13.10;96.00
4908;DHT22;64375;51.540;7.364;2023-05-02T11:33:14;13.40;98.10
4908;DHT22;64375;51.540;7.364;2023-05-02T11:35:44;13.60;95.40
4908;DHT22;64375;51.540;7.364;2023-05-02T11:38:14;13.50;93.40
4908;DHT22;64375;51.540;7.364;2023-05-02T11:41:07;13.60;94.30
4908;DHT22;64375;51.540;7.364;2023-05-02T11:43:38;13.70;95.60
4908;DHT22;64375;51.540;7.364;2023-05-02T11:46:12;13.80;94.00
4908;DHT22;64375;51.540;7.364;2023-05-02T11:48:47;13.70;92.10
4908;DHT22;64375;51.540;7.364;2023-05-02T11:51:21;14.00;94.80
4908;DHT22;64375;51.540;7.364;2023-05-02T11:53:49;14.10;93.00
4908;DHT22;64375;51.540;7.364;2023-05-02T11:56:31;14.00;92.10
4908;DHT22;64375;51.540;7.364;2023-05-02T11:59:03;13.80;91.60
4908;DHT22;64375;51.540;7.364;2023-05-02T12:01:35;13.70;91.50
4908;DHT22;64375;51.540;7.364;2023-05-02T12:04:03;13.70;92.10
4908;DHT22;64375;51.540;7.364;2023-05-02T12:06:33;13.80;93.00
4908;DHT22;64375;51.540;7.364;2023-05-02T12:09:22;13.80;93.60
4908;DHT22;64375;51.540;7.364;2023-05-02T12:11:54;13.80;93.60
4908;DHT22;64375;51.540;7.364;2023-05-02T12:14:26;14.10;94.90
4908;DHT22;64375;51.540;7.364;2023-05-02T12:16:56;14.30;95.40
4908;DHT22;64375;51.540;7.364;2023-05-02T12:19:28;14.30;91.50
4908;DHT22;64375;51.540;7.364;2023-05-02T12:21:56;14.20;89.20
4908;DHT22;64375;51.540;7.364;2023-05-02T12:24:27;14.10;92.20
4908;DHT22;64375;51.540;7.364;2023-05-02T12:27:20;14.10;90.70
4908;DHT22;64375;51.540;7.364;2023-05-02T12:29:57;14.00;90.40
4908;DHT22;64375;51.540;7.364;2023-05-02T12:32:27;14.10;95.20
4908;DHT22;64375;51.540;7.364;2023-05-02T12:34:59;14.10;91.10
4908;DHT22;64375;51.540;7.364;2023-05-02T12:37:27;14.10;91.70
4908;DHT22;64375;51.540;7.364;2023-05-02T12:40:16;14.20;93.30
4908;DHT22;64375;51.540;7.364;2023-05-02T12:42:57;14.40;94.40
4908;DHT22;64375;51.540;7.364;2023-05-02T12:45:29;14.60;89.30
4908;DHT22;64375;51.540;7.364;2023-05-02T12:48:18;14.40;81.30
4908;DHT22;64375;51.540;7.364;2023-05-02T12:50:55;14.30;86.60
4908;DHT22;64375;51.540;7.364;2023-05-02T12:53:39;14.40;91.60
4908;DHT22;64375;51.540;7.364;2023-05-02T12:56:10;14.50;85.70
4908;DHT22;64375;51.540;7.364;2023-05-02T12:58:49;14.30;84.50
4908;DHT22;64375;51.540;7.364;2023-05-02T13:01:20;14.80;98.00
4908;DHT22;64375;51.540;7.364;2023-05-02T13:03:50;15.00;89.20
4908;DHT22;64375;51.540;7.364;2023-05-02T13:06:18;15.00;88.00
4908;DHT22;64375;51.540;7.364;2023-05-02T13:08:49;15.20;88.50
4908;DHT22;64375;51.540;7.364;2023-05-02T13:11:16;15.40;92.30
4908;DHT22;64375;51.540;7.364;2023-05-02T13:13:45;15.30;88.60
4908;DHT22;64375;51.540;7.364;2023-05-02T13:16:14;15.30;84.20
4908;DHT22;64375;51.540;7.364;2023-05-02T13:18:42;15.00;82.80
4908;DHT22;64375;51.540;7.364;2023-05-02T13:21:13;14.10;79.40
4908;DHT22;64375;51.540;7.364;2023-05-02T13:23:46;13.90;85.00
4908;DHT22;64375;51.540;7.364;2023-05-02T13:26:16;13.60;81.60
4908;DHT22;64375;51.540;7.364;2023-05-02T13:28:49;13.10;81.30
4908;DHT22;64375;51.540;7.364;2023-05-02T13:31:22;12.60;79.00
4908;DHT22;64375;51.540;7.364;2023-05-02T13:33:50;12.60;79.30
4908;DHT22;64375;51.540;7.364;2023-05-02T13:36:20;12.50;82.30
4908;DHT22;64375;51.540;7.364;2023-05-02T13:38:53;12.50;84.40
4908;DHT22;64375;51.540;7.364;2023-05-02T13:41:24;12.80;78.60
4908;DHT22;64375;51.540;7.364;2023-05-02T13:43:55;12.90;81.70
4908;DHT22;64375;51.540;7.364;2023-05-02T13:46:26;13.10;81.70
4908;DHT22;64375;51.540;7.364;2023-05-02T13:48:54;13.30;84.10
4908;DHT22;64375;51.540;7.364;2023-05-02T13:51:22;13.60;84.50
4908;DHT22;64375;51.540;7.364;2023-05-02T13:53:53;13.60;81.60
4908;DHT22;64375;51.540;7.364;2023-05-02T13:56:21;14.10;78.30
4908;DHT22;64375;51.540;7.364;2023-05-02T13:58:54;13.60;77.90
4908;DHT22;64375;51.540;7.364;2023-05-02T14:01:24;13.20;78.90
4908;DHT22;64375;51.540;7.364;2023-05-02T14:03:53;13.10;81.30
4908;DHT22;64375;51.540;7.364;2023-05-02T14:06:24;13.10;80.70
4908;DHT22;64375;51.540;7.364;2023-05-02T14:08:55;13.30;84.30
4908;DHT22;64375;51.540;7.364;2023-05-02T14:11:23;13.40;79.30
4908;DHT22;64375;51.540;7.364;2023-05-02T14:13:57;13.30;78.60
4908;DHT22;64375;51.540;7.364;2023-05-02T14:16:29;13.30;78.10
4908;DHT22;64375;51.540;7.364;2023-05-02T14:19:06;13.40;79.40
4908;DHT22;64375;51.540;7.364;2023-05-02T14:21:34;13.40;79.30
4908;DHT22;64375;51.540;7.364;2023-05-02T14:24:03;13.40;82.90
4908;DHT22;64375;51.540;7.364;2023-05-02T14:26:40;13.40;82.50
4908;DHT22;64375;51.540;7.364;2023-05-02T14:29:11;13.30;79.70
4908;DHT22;64375;51.540;7.364;2023-05-02T14:31:48;13.10;79.10
4908;DHT22;64375;51.540;7.364;2023-05-02T14:34:16;12.90;77.80
4908;DHT22;64375;51.540;7.364;2023-05-02T14:36:50;12.90;80.30
4908;DHT22;64375;51.540;7.364;2023-05-02T14:39:18;13.00;80.60
4908;DHT22;64375;51.540;7.364;2023-05-02T14:41:46;13.20;86.70
4908;DHT22;64375;51.540;7.364;2023-05-02T14:44:13;13.40;81.40
4908;DHT22;64375;51.540;7.364;2023-05-02T14:46:43;13.50;78.70
4908;DHT22;64375;51.540;7.364;2023-05-02T14:49:16;13.40;79.80
4908;DHT22;64375;51.540;7.364;2023-05-02T14:51:44;13.70;90.30
4908;DHT22;64375;51.540;7.364;2023-05-02T14:54:16;13.50;80.20
4908;DHT22;64375;51.540;7.364;2023-05-02T14:56:44;13.20;81.70
4908;DHT22;64375;51.540;7.364;2023-05-02T14:59:12;13.10;81.20
4908;DHT22;64375;51.540;7.364;2023-05-02T15:01:44;13.00;80.00
4908;DHT22;64375;51.540;7.364;2023-05-02T15:04:12;13.00;82.10
4908;DHT22;64375;51.540;7.364;2023-05-02T15:06:49;13.10;84.90
4908;DHT22;64375;51.540;7.364;2023-05-02T15:09:21;13.30;83.20
4908;DHT22;64375;51.540;7.364;2023-05-02T15:11:52;13.00;81.70
4908;DHT22;64375;51.540;7.364;2023-05-02T15:14:20;13.00;80.20
4908;DHT22;64375;51.540;7.364;2023-05-02T15:16:49;13.20;82.50
4908;DHT22;64375;51.540;7.364;2023-05-02T15:19:17;13.20;82.00
4908;DHT22;64375;51.540;7.364;2023-05-02T15:21:51;13.50;84.80
4908;DHT22;64375;51.540;7.364;2023-05-02T15:24:23;13.40;80.10
4908;DHT22;64375;51.540;7.364;2023-05-02T15:26:51;13.60;82.40
4908;DHT22;64375;51.540;7.364;2023-05-02T15:29:19;13.50;81.80
4908;DHT22;64375;51.540;7.364;2023-05-02T15:31:48;13.20;79.50
4908;DHT22;64375;51.540;7.364;2023-05-02T15:34:16;13.10;81.20
4908;DHT22;64375;51.540;7.364;2023-05-02T15:36:44;13.10;79.40
4908;DHT22;64375;51.540;7.364;2023-05-02T15:39:12;13.10;82.00
4908;DHT22;64375;51.540;7.364;2023-05-02T15:41:40;13.00;80.30
4908;DHT22;64375;51.540;7.364;2023-05-02T15:44:11;13.10;82.60
4908;DHT22;64375;51.540;7.364;2023-05-02T15:46:39;13.20;80.50
4908;DHT22;64375;51.540;7.364;2023-05-02T15:49:14;13.00;80.20
4908;DHT22;64375;51.540;7.364;2023-05-02T15:51:48;12.90;80.70
4908;DHT22;64375;51.540;7.364;2023-05-02T15:54:16;12.90;80.60
4908;DHT22;64375;51.540;7.364;2023-05-02T15:56:44;12.90;79.50
4908;DHT22;64375;51.540;7.364;2023-05-02T15:59:12;12.90;79.80
4908;DHT22;64375;51.540;7.364;2023-05-02T16:01:55;12.90;79.30
4908;DHT22;64375;51.540;7.364;2023-05-02T16:04:29;13.00;78.50
4908;DHT22;64375;51.540;7.364;2023-05-02T16:07:03;13.00;76.70
4908;DHT22;64375;51.540;7.364;2023-05-02T16:09:41;13.10;77.80
4908;DHT22;64375;51.540;7.364;2023-05-02T16:12:12;13.20;76.90
4908;DHT22;64375;51.540;7.364;2023-05-02T16:14:40;13.10;78.30
4908;DHT22;64375;51.540;7.364;2023-05-02T16:17:10;13.00;77.70
4908;DHT22;64375;51.540;7.364;2023-05-02T16:19:43;12.90;76.50
4908;DHT22;64375;51.540;7.364;2023-05-02T16:22:14;12.90;77.20